createdAt,value
2022-08-17T00:00:43.835Z,3.08
2022-08-17T00:03:29.364Z,2.97
2022-08-17T00:06:11.840Z,2.80
2022-08-17T00:08:45.688Z,3.13
2022-08-17T00:11:26.495Z,2.72
2022-08-17T00:14:02.931Z,3.20
2022-08-17T00:16:55.440Z,2.97
2022-08-17T00:19:28.152Z,2.63
2022-08-17T00:22:32.177Z,3.08
2022-08-17T00:24:52.544Z,2.50
2022-08-17T00:27:22.893Z,2.67
2022-08-17T00:29:53.685Z,2.25
2022-08-17T00:33:13.958Z,2.50
2022-08-17T00:35:17.336Z,2.15
2022-08-17T00:37:47.529Z,2.25
2022-08-17T00:40:19.048Z,2.53
2022-08-17T00:42:50.118Z,2.25
2022-08-17T00:45:21.582Z,2.17
2022-08-17T00:47:51.702Z,2.38
2022-08-17T00:50:22.359Z,1.73
2022-08-17T00:55:28.484Z,2.63
2022-08-17T00:58:01.846Z,2.40
2022-08-17T01:00:41.419Z,2.47
2022-08-17T01:03:23.344Z,2.38
2022-08-17T01:05:57.342Z,2.40
2022-08-17T01:08:30.424Z,2.50
2022-08-17T01:11:06.476Z,2.20
2022-08-17T01:13:41.429Z,2.30
2022-08-17T01:16:20.942Z,2.35
2022-08-17T01:18:54.655Z,2.22
2022-08-17T01:21:44.044Z,2.67
2022-08-17T01:24:14.251Z,2.55
2022-08-17T01:26:46.220Z,2.78
2022-08-17T01:29:16.509Z,2.50
2022-08-17T01:31:55.091Z,1.92
2022-08-17T01:34:39.873Z,2.00
2022-08-17T01:37:17.582Z,2.00
2022-08-17T01:39:55.924Z,2.67
2022-08-17T01:42:46.740Z,2.50
2022-08-17T01:45:25.503Z,2.25
2022-08-17T01:47:56.647Z,2.40
2022-08-17T01:50:31.848Z,2.30
2022-08-17T01:53:10.514Z,2.42
2022-08-17T01:55:47.304Z,2.30
2022-08-17T01:58:18.525Z,2.00
2022-08-17T02:01:00.324Z,2.30
2022-08-17T02:03:32.582Z,2.58
2022-08-17T02:06:03.539Z,2.55
2022-08-17T02:08:38.690Z,2.70
2022-08-17T02:11:15.827Z,2.40
2022-08-17T02:16:17.946Z,2.20
2022-08-17T02:18:49.844Z,2.30
2022-08-17T02:21:20.562Z,2.10
2022-08-17T02:23:54.540Z,2.47
2022-08-17T02:26:27.803Z,2.78
2022-08-17T02:28:58.365Z,3.33
2022-08-17T02:34:03.452Z,3.00
2022-08-17T02:36:37.970Z,3.35
2022-08-17T02:39:11.703Z,3.40
2022-08-17T02:41:42.514Z,3.20
2022-08-17T02:44:13.352Z,3.70
2022-08-17T02:47:03.724Z,3.33
2022-08-17T02:49:34.326Z,3.58
2022-08-17T02:54:41.632Z,3.38
2022-08-17T02:57:12.870Z,3.15
2022-08-17T02:59:48.796Z,3.30
2022-08-17T03:02:19.220Z,3.00
2022-08-17T03:04:49.743Z,3.10
2022-08-17T03:09:51.923Z,3.05
2022-08-17T03:14:51.531Z,3.65
2022-08-17T03:17:22.168Z,3.47
2022-08-17T03:19:52.325Z,3.30
2022-08-17T03:22:36.750Z,3.90
2022-08-17T03:25:13.128Z,4.32
2022-08-17T03:27:51.439Z,3.25
2022-08-17T03:30:23.673Z,3.25
2022-08-17T03:32:58.982Z,3.53
2022-08-17T03:35:32.906Z,3.95
2022-08-17T03:38:04.812Z,4.80
2022-08-17T03:40:56.260Z,4.18
2022-08-17T03:43:25.801Z,4.00
2022-08-17T03:49:24.908Z,3.72
2022-08-17T03:52:14.959Z,3.00
2022-08-17T03:55:05.326Z,3.53
2022-08-17T03:57:35.542Z,3.22
2022-08-17T04:00:07.089Z,4.32
2022-08-17T04:02:41.690Z,3.80
2022-08-17T04:05:12.305Z,4.13
2022-08-17T04:10:12.994Z,3.78
2022-08-17T04:15:21.330Z,3.00
2022-08-17T04:20:25.769Z,3.35
2022-08-17T04:23:03.852Z,3.53
2022-08-17T04:25:37.699Z,3.30
2022-08-17T04:28:15.794Z,3.53
2022-08-17T04:30:48.890Z,3.00
2022-08-17T04:33:23.089Z,3.22
2022-08-17T04:35:56.945Z,3.75
2022-08-17T04:38:29.524Z,3.80
2022-08-17T04:41:19.482Z,3.70
2022-08-17T04:43:51.025Z,3.75
2022-08-17T04:46:23.592Z,3.60
2022-08-17T04:48:57.240Z,3.58
2022-08-17T04:51:29.348Z,3.83
2022-08-17T04:54:02.930Z,4.00
2022-08-17T04:56:33.877Z,3.85
2022-08-17T04:59:17.610Z,3.55
2022-08-17T05:01:51.111Z,3.67
2022-08-17T05:04:34.522Z,3.53
2022-08-17T05:07:05.995Z,3.20
2022-08-17T05:09:36.160Z,3.08
2022-08-17T05:12:07.362Z,3.35
2022-08-17T05:14:39.876Z,3.38
2022-08-17T05:17:11.252Z,3.65
2022-08-17T05:19:42.796Z,2.85
2022-08-17T05:22:13.396Z,3.05
2022-08-17T05:27:27.903Z,3.17
2022-08-17T05:30:05.555Z,3.45
2022-08-17T05:32:39.509Z,3.20
2022-08-17T05:35:10.915Z,3.33
2022-08-17T05:37:42.372Z,3.60
2022-08-17T05:40:13.007Z,3.35
2022-08-17T05:42:44.194Z,3.22
2022-08-17T05:45:16.961Z,3.38
2022-08-17T05:48:08.440Z,3.38
2022-08-17T05:50:52.070Z,3.33
2022-08-17T05:53:41.562Z,3.67
2022-08-17T05:56:30.098Z,4.20
2022-08-17T05:59:22.198Z,4.30
2022-08-17T06:02:09.253Z,4.90
2022-08-17T06:05:01.620Z,5.00
2022-08-17T06:07:50.200Z,4.85
2022-08-17T06:10:32.820Z,5.28
2022-08-17T06:13:19.940Z,4.88
2022-08-17T06:16:33.376Z,5.35
2022-08-17T06:19:07.247Z,5.40
2022-08-17T06:21:42.674Z,6.28
2022-08-17T06:24:26.382Z,5.47
2022-08-17T06:29:48.249Z,5.30
2022-08-17T06:32:18.828Z,5.45
2022-08-17T06:34:49.451Z,4.90
2022-08-17T06:37:51.716Z,6.45
2022-08-17T06:40:21.842Z,6.30
2022-08-17T06:43:15.137Z,5.95
2022-08-17T06:45:53.776Z,6.03
2022-08-17T06:48:36.588Z,6.03
2022-08-17T06:51:38.860Z,4.97
2022-08-17T06:54:26.220Z,6.03
2022-08-17T06:57:29.451Z,5.25
2022-08-17T07:00:05.385Z,6.20
2022-08-17T07:03:02.882Z,6.07
2022-08-17T07:05:43.929Z,6.47
2022-08-17T07:08:39.223Z,6.60
2022-08-17T07:11:16.974Z,6.32
2022-08-17T07:16:47.854Z,5.10
2022-08-17T07:19:20.253Z,5.78
2022-08-17T07:21:57.064Z,6.05
2022-08-17T07:25:03.279Z,6.00
2022-08-17T07:27:42.291Z,6.57
2022-08-17T07:30:30.364Z,4.95
2022-08-17T07:33:14.230Z,5.60
2022-08-17T07:35:49.303Z,5.57
2022-08-17T07:38:26.922Z,3.63
2022-08-17T07:41:09.248Z,3.25
2022-08-17T07:43:42.624Z,4.00
2022-08-17T07:46:54.934Z,2.97
2022-08-17T07:49:35.169Z,4.35
2022-08-17T07:52:47.550Z,3.20
2022-08-17T07:55:28.787Z,3.13
2022-08-17T07:58:01.207Z,2.50
2022-08-17T08:00:33.404Z,2.90
2022-08-17T08:03:14.589Z,4.53
2022-08-17T08:05:53.758Z,2.75
2022-08-17T08:08:31.938Z,2.92
2022-08-17T08:11:10.006Z,3.20
2022-08-17T08:13:44.705Z,3.10
2022-08-17T08:16:27.590Z,3.75
2022-08-17T08:19:00.845Z,4.22
2022-08-17T08:22:00.343Z,2.72
2022-08-17T08:24:51.179Z,4.10
2022-08-17T08:27:31.024Z,2.85
2022-08-17T08:30:17.144Z,3.33
2022-08-17T08:33:08.815Z,2.75
2022-08-17T08:35:48.032Z,4.38
2022-08-17T08:38:48.519Z,3.30
2022-08-17T08:41:27.357Z,5.40
2022-08-17T08:44:12.295Z,3.00
2022-08-17T08:47:19.558Z,2.67
2022-08-17T08:50:31.782Z,2.72
2022-08-17T08:53:27.432Z,2.30
2022-08-17T08:56:18.022Z,2.00
2022-08-17T08:58:55.952Z,2.45
2022-08-17T09:01:55.221Z,2.10
2022-08-17T09:05:12.883Z,2.88
2022-08-17T09:08:05.563Z,2.67
2022-08-17T09:10:48.959Z,2.22
2022-08-17T09:13:23.236Z,2.33
2022-08-17T09:16:17.050Z,3.03
2022-08-17T09:19:00.640Z,2.40
2022-08-17T09:21:47.710Z,2.42
2022-08-17T09:24:38.984Z,2.70
2022-08-17T09:27:26.965Z,2.60
2022-08-17T09:30:04.243Z,2.08
2022-08-17T09:32:45.979Z,2.80
2022-08-17T09:35:24.957Z,2.47
2022-08-17T09:38:36.301Z,3.10
2022-08-17T09:41:29.898Z,2.28
2022-08-17T09:44:23.272Z,2.20
2022-08-17T09:47:12.473Z,2.75
2022-08-17T09:49:50.736Z,2.08
2022-08-17T09:52:30.160Z,2.05
2022-08-17T09:55:02.616Z,3.80
2022-08-17T09:58:10.587Z,2.13
2022-08-17T10:00:50.445Z,1.73
2022-08-17T10:03:36.249Z,3.08
2022-08-17T10:06:09.553Z,1.42
2022-08-17T10:09:07.822Z,1.52
2022-08-17T10:12:12.499Z,1.55
2022-08-17T10:15:09.592Z,1.60
2022-08-17T10:18:00.482Z,1.90
2022-08-17T10:21:18.938Z,2.95
2022-08-17T10:24:14.355Z,1.23
2022-08-17T10:26:56.411Z,2.67
2022-08-17T10:29:47.537Z,1.88
2022-08-17T10:32:42.659Z,1.80
2022-08-17T10:35:20.310Z,3.00
2022-08-17T10:38:16.577Z,3.30
2022-08-17T10:40:59.532Z,1.40
2022-08-17T10:43:35.989Z,1.88
2022-08-17T10:46:30.863Z,1.90
2022-08-17T10:49:22.146Z,2.10
2022-08-17T10:51:56.035Z,1.90
2022-08-17T10:54:26.653Z,1.92
2022-08-17T10:56:58.881Z,2.40
2022-08-17T10:59:38.575Z,1.90
2022-08-17T11:02:36.177Z,2.00
2022-08-17T11:05:33.598Z,1.73
2022-08-17T11:08:38.795Z,3.47
2022-08-17T11:12:08.555Z,2.00
2022-08-17T11:14:52.464Z,1.50
2022-08-17T11:17:23.110Z,3.80
2022-08-17T11:19:56.154Z,1.80
2022-08-17T11:23:00.231Z,1.40
2022-08-17T11:25:46.196Z,1.25
2022-08-17T11:28:27.839Z,1.38
2022-08-17T11:31:09.214Z,1.40
2022-08-17T11:33:46.235Z,1.48
2022-08-17T11:36:34.707Z,2.42
2022-08-17T11:39:31.526Z,1.90
2022-08-17T11:42:22.734Z,1.40
2022-08-17T11:45:09.714Z,1.48
2022-08-17T11:48:27.095Z,1.63
2022-08-17T11:51:36.107Z,1.27
2022-08-17T11:57:22.678Z,1.40
2022-08-17T12:00:15.997Z,2.33
2022-08-17T12:02:50.084Z,1.35
2022-08-17T12:05:24.063Z,1.85
2022-08-17T12:08:15.891Z,1.60
2022-08-17T12:10:59.625Z,1.70
2022-08-17T12:13:39.352Z,1.35
2022-08-17T12:16:15.200Z,1.42
2022-08-17T12:19:24.885Z,1.65
2022-08-17T12:22:21.094Z,1.73
2022-08-17T12:25:35.713Z,1.50
2022-08-17T12:28:08.068Z,1.60
2022-08-17T12:30:39.872Z,1.55
2022-08-17T12:33:27.976Z,1.63
2022-08-17T12:36:03.970Z,1.70
2022-08-17T12:38:39.466Z,1.67
2022-08-17T12:41:30.074Z,1.98
2022-08-17T12:44:03.212Z,2.53
2022-08-17T12:46:48.209Z,2.63
2022-08-17T12:49:36.806Z,2.17
2022-08-17T12:52:24.817Z,2.20
2022-08-17T12:55:00.656Z,2.28
2022-08-17T12:57:41.336Z,2.50
2022-08-17T13:00:26.594Z,2.47
2022-08-17T13:03:04.565Z,2.20
2022-08-17T13:05:44.700Z,2.17
2022-08-17T13:08:19.520Z,2.20
2022-08-17T13:11:03.587Z,2.40
2022-08-17T13:13:40.423Z,2.45
2022-08-17T13:16:32.593Z,2.58
2022-08-17T13:19:15.469Z,2.75
2022-08-17T13:21:57.614Z,2.28
2022-08-17T13:24:37.843Z,2.22
2022-08-17T13:27:13.469Z,2.15
2022-08-17T13:29:52.909Z,2.03
2022-08-17T13:32:46.638Z,2.10
2022-08-17T13:35:39.358Z,2.97
2022-08-17T13:38:37.011Z,2.53
2022-08-17T13:41:08.657Z,2.70
2022-08-17T13:43:49.529Z,3.22
2022-08-17T13:46:22.133Z,2.25
2022-08-17T13:49:19.776Z,2.30
2022-08-17T13:51:53.228Z,2.33
2022-08-17T13:54:36.975Z,2.25
2022-08-17T13:57:22.016Z,2.00
2022-08-17T13:59:59.277Z,2.30
2022-08-17T14:02:30.286Z,2.67
2022-08-17T14:05:01.959Z,2.22
2022-08-17T14:07:40.039Z,2.38
2022-08-17T14:10:18.864Z,2.33
2022-08-17T14:12:51.314Z,2.40
2022-08-17T14:15:54.760Z,2.40
2022-08-17T14:18:49.865Z,2.72
2022-08-17T14:21:11.805Z,2.10
2022-08-17T14:23:49.016Z,2.50
2022-08-17T14:26:24.932Z,2.50
2022-08-17T14:28:56.473Z,2.45
2022-08-17T14:31:28.714Z,2.58
2022-08-17T14:34:00.128Z,2.85
2022-08-17T14:36:30.288Z,2.85
2022-08-17T14:39:01.040Z,2.50
2022-08-17T14:41:31.495Z,2.58
2022-08-17T14:44:03.127Z,2.40
2022-08-17T14:46:33.884Z,2.42
2022-08-17T14:49:04.557Z,2.38
2022-08-17T14:51:34.964Z,2.55
2022-08-17T14:54:33.461Z,2.72
2022-08-17T14:57:24.536Z,2.17
2022-08-17T15:00:07.180Z,2.60
2022-08-17T15:02:50.406Z,2.40
2022-08-17T15:05:22.143Z,2.72
2022-08-17T15:07:53.874Z,2.30
2022-08-17T15:10:25.847Z,2.78
2022-08-17T15:12:57.345Z,2.33
2022-08-17T15:15:29.240Z,2.33
2022-08-17T15:18:00.958Z,2.33
2022-08-17T15:20:32.265Z,2.30
2022-08-17T15:23:02.630Z,2.60
2022-08-17T15:25:34.519Z,2.28
2022-08-17T15:28:04.768Z,2.20
2022-08-17T15:30:35.518Z,2.30
2022-08-17T15:33:06.078Z,2.00
2022-08-17T15:35:37.220Z,2.78
2022-08-17T15:38:12.124Z,2.25
2022-08-17T15:40:47.328Z,2.22
2022-08-17T15:43:27.577Z,2.47
2022-08-17T15:46:02.253Z,2.50
2022-08-17T15:48:43.034Z,2.33
2022-08-17T15:51:26.919Z,2.40
2022-08-17T15:54:04.499Z,2.33
2022-08-17T15:56:50.031Z,2.55
2022-08-17T15:59:20.513Z,2.30
2022-08-17T16:03:13.293Z,2.70
2022-08-17T16:04:44.081Z,2.13
2022-08-17T16:07:19.345Z,2.38
2022-08-17T16:09:52.473Z,2.53
2022-08-17T16:12:23.698Z,2.50
2022-08-17T16:14:57.349Z,2.28
2022-08-17T16:17:39.258Z,2.35
2022-08-17T16:20:20.037Z,2.45
2022-08-17T16:22:52.602Z,2.30
2022-08-17T16:25:47.153Z,2.35
2022-08-17T16:28:21.798Z,2.20
2022-08-17T16:30:52.017Z,2.50
2022-08-17T16:33:22.614Z,2.20
2022-08-17T16:35:52.757Z,2.60
2022-08-17T16:38:22.866Z,3.17
2022-08-17T16:40:53.431Z,2.40
2022-08-17T16:43:24.196Z,2.50
2022-08-17T16:45:55.348Z,2.70
2022-08-17T16:48:25.966Z,2.60
2022-08-17T16:51:03.142Z,2.53
2022-08-17T16:53:34.732Z,2.17
2022-08-17T16:56:06.238Z,2.40
2022-08-17T16:58:36.996Z,2.70
2022-08-17T17:01:10.862Z,2.58
2022-08-17T17:03:47.884Z,3.00
2022-08-17T17:06:33.832Z,3.25
2022-08-17T17:09:09.409Z,2.90
2022-08-17T17:11:39.996Z,2.63
2022-08-17T17:14:39.143Z,2.58
2022-08-17T17:17:19.587Z,2.17
2022-08-17T17:20:11.219Z,2.92
2022-08-17T17:23:16.639Z,2.60
2022-08-17T17:25:57.713Z,2.13
2022-08-17T17:29:02.758Z,2.30
2022-08-17T17:31:48.607Z,2.47
2022-08-17T17:34:19.587Z,2.53
2022-08-17T17:36:58.002Z,2.47
2022-08-17T17:39:44.150Z,2.30
2022-08-17T17:42:20.072Z,2.40
2022-08-17T17:45:09.129Z,2.13
2022-08-17T17:47:40.619Z,2.47
2022-08-17T17:50:11.217Z,2.08
2022-08-17T17:53:16.929Z,2.45
2022-08-17T17:56:33.087Z,2.40
2022-08-17T17:59:12.853Z,2.60
2022-08-17T18:02:39.947Z,2.40
2022-08-17T18:05:35.441Z,2.05
2022-08-17T18:08:57.004Z,2.30
2022-08-17T18:11:58.979Z,2.22
2022-08-17T18:14:46.071Z,2.50
2022-08-17T18:17:16.751Z,2.38
2022-08-17T18:19:49.449Z,2.45
2022-08-17T18:22:22.638Z,2.25
2022-08-17T18:24:57.022Z,2.30
2022-08-17T18:27:39.062Z,2.30
2022-08-17T18:30:28.439Z,2.28
2022-08-17T18:33:27.703Z,2.10
2022-08-17T18:35:58.502Z,2.30
2022-08-17T18:38:36.815Z,2.38
2022-08-17T18:41:19.483Z,2.15
2022-08-17T18:44:17.747Z,2.60
2022-08-17T18:46:47.960Z,2.55
2022-08-17T18:49:21.738Z,2.55
2022-08-17T18:52:16.175Z,2.30
2022-08-17T18:55:04.967Z,2.47
2022-08-17T18:57:39.763Z,2.20
2022-08-17T19:00:36.909Z,2.30
2022-08-17T19:03:19.425Z,2.40
2022-08-17T19:06:31.393Z,2.50
2022-08-17T19:09:02.282Z,2.83
2022-08-17T19:11:37.219Z,4.35
2022-08-17T19:14:12.213Z,3.50
2022-08-17T19:16:48.167Z,4.05
2022-08-17T19:19:22.431Z,3.80
2022-08-17T19:22:00.137Z,2.90
2022-08-17T19:24:33.022Z,3.15
2022-08-17T19:27:41.852Z,3.10
2022-08-17T19:30:18.380Z,2.60
2022-08-17T19:32:49.547Z,3.05
2022-08-17T19:35:21.427Z,3.10
2022-08-17T19:38:28.022Z,2.80
2022-08-17T19:41:01.076Z,2.78
2022-08-17T19:43:49.027Z,2.90
2022-08-17T19:46:49.970Z,2.50
2022-08-17T19:49:41.027Z,2.47
2022-08-17T19:52:41.764Z,2.63
2022-08-17T19:55:37.600Z,3.38
2022-08-17T19:58:25.020Z,3.70
2022-08-17T20:00:56.731Z,3.78
2022-08-17T20:03:39.775Z,3.67
2022-08-17T20:06:14.049Z,4.07
2022-08-17T20:08:56.732Z,4.10
2022-08-17T20:11:38.706Z,4.10
2022-08-17T20:14:26.587Z,3.95
2022-08-17T20:17:01.943Z,4.55
2022-08-17T20:19:46.941Z,3.90
2022-08-17T20:22:31.132Z,3.38
2022-08-17T20:25:07.543Z,4.57
2022-08-17T20:28:20.696Z,4.63
2022-08-17T20:30:52.258Z,5.45
2022-08-17T20:33:39.847Z,5.63
2022-08-17T20:36:25.437Z,5.05
2022-08-17T20:38:59.680Z,5.68
2022-08-17T20:41:32.356Z,5.20
2022-08-17T20:44:06.671Z,4.90
2022-08-17T20:46:39.700Z,4.57
2022-08-17T20:49:21.949Z,5.18
2022-08-17T20:52:03.904Z,4.30
2022-08-17T20:54:51.902Z,5.32
2022-08-17T20:57:34.590Z,4.82
2022-08-17T21:00:29.826Z,5.20
2022-08-17T21:03:23.961Z,5.78
2022-08-17T21:06:17.272Z,5.32
2022-08-17T21:08:55.928Z,4.78
2022-08-17T21:12:03.404Z,5.75
2022-08-17T21:14:24.902Z,5.93
2022-08-17T21:17:43.111Z,5.28
2022-08-17T21:20:36.061Z,5.70
2022-08-17T21:23:41.508Z,5.63
2022-08-17T21:26:34.654Z,4.95
2022-08-17T21:29:32.592Z,5.15
2022-08-17T21:32:07.557Z,5.53
2022-08-17T21:34:45.179Z,5.78
2022-08-17T21:37:24.430Z,5.30
2022-08-17T21:39:59.564Z,5.40
2022-08-17T21:42:35.919Z,5.30
2022-08-17T21:45:22.350Z,5.53
2022-08-17T21:48:10.002Z,5.32
2022-08-17T21:50:43.176Z,5.28
2022-08-17T21:53:33.066Z,5.22
2022-08-17T21:56:04.432Z,4.95
2022-08-17T21:58:42.882Z,5.05
2022-08-17T22:01:23.221Z,4.93
2022-08-17T22:04:01.472Z,4.93
2022-08-17T22:06:42.919Z,5.75
2022-08-17T22:09:32.927Z,5.18
2022-08-17T22:12:08.722Z,4.78
2022-08-17T22:14:52.847Z,5.70
2022-08-17T22:17:31.312Z,5.25
2022-08-17T22:20:19.105Z,5.53
2022-08-17T22:23:13.564Z,5.22
2022-08-17T22:26:09.728Z,5.20
2022-08-17T22:28:50.563Z,5.80
2022-08-17T22:31:22.502Z,5.20
2022-08-17T22:34:02.091Z,5.85
2022-08-17T22:36:35.655Z,6.47
2022-08-17T22:39:11.946Z,6.25
2022-08-17T22:41:55.061Z,6.95
2022-08-17T22:47:11.315Z,6.03
2022-08-17T22:49:53.969Z,6.20
2022-08-17T22:52:32.119Z,5.25
2022-08-17T22:55:26.739Z,5.65
2022-08-17T22:58:15.302Z,6.50
2022-08-17T23:00:49.427Z,6.55
2022-08-17T23:03:26.029Z,6.18
2022-08-17T23:06:09.466Z,6.80
2022-08-17T23:08:58.784Z,7.03
2022-08-17T23:11:36.797Z,6.45
2022-08-17T23:14:17.347Z,7.53
2022-08-17T23:16:50.117Z,7.93
2022-08-17T23:19:22.514Z,8.95
2022-08-17T23:21:53.687Z,8.50
2022-08-17T23:24:27.504Z,8.32
2022-08-17T23:26:59.271Z,7.15
2022-08-17T23:29:30.485Z,6.85
2022-08-17T23:32:02.401Z,6.63
2022-08-17T23:34:32.875Z,6.15
2022-08-17T23:37:05.401Z,6.13
2022-08-17T23:39:36.176Z,5.88
2022-08-17T23:42:12.442Z,5.68
2022-08-17T23:47:14.697Z,5.05
2022-08-17T23:49:44.643Z,4.97
2022-08-17T23:52:17.546Z,5.03
2022-08-17T23:54:49.346Z,5.72
2022-08-17T23:57:33.803Z,5.70
